sensor_id;sensor_type;location;lat;lon;timestamp;P1;P2;P0
65574;PMS5003;52216;54.942;73.394;2023-06-10T00:00:39;19.00;16.00;8.00
65574;PMS5003;52216;54.942;73.394;2023-06-10T00:03:46;17.00;16.00;8.00
65574;PMS5003;52216;54.942;73.394;2023-06-10T00:06:50;22.20;21.00;12.80
65574;PMS5003;52216;54.942;73.394;2023-06-10T00:09:54;21.00;18.40;12.00
65574;PMS5003;52216;54.942;73.394;2023-06-10T00:12:57;19.00;17.00;7.25
65574;PMS5003;52216;54.942;73.394;2023-06-10T00:16:00;15.25;15.25;6.00
65574;PMS5003;52216;54.942;73.394;2023-06-10T00:19:03;13.50;13.50;7.00
65574;PMS5003;52216;54.942;73.394;2023-06-10T00:22:06;17.75;17.50;9.00
65574;PMS5003;52216;54.942;73.394;2023-06-10T00:25:08;18.00;16.00;7.00
65574;PMS5003;52216;54.942;73.394;2023-06-10T00:28:13;13.00;10.00;3.00
65574;PMS5003;52216;54.942;73.394;2023-06-10T00:31:17;9.75;8.75;5.00
65574;PMS5003;52216;54.942;73.394;2023-06-10T00:34:20;8.00;8.00;4.00
65574;PMS5003;52216;54.942;73.394;2023-06-10T00:37:23;8.00;8.00;3.00
65574;PMS5003;52216;54.942;73.394;2023-06-10T00:40:25;7.00;6.00;3.00
65574;PMS5003;52216;54.942;73.394;2023-06-10T00:43:27;6.50;6.50;3.25
65574;PMS5003;52216;54.942;73.394;2023-06-10T00:46:30;5.00;4.00;3.00
65574;PMS5003;52216;54.942;73.394;2023-06-10T00:49:34;4.00;4.00;3.00
65574;PMS5003;52216;54.942;73.394;2023-06-10T00:52:37;4.75;4.75;2.00
65574;PMS5003;52216;54.942;73.394;2023-06-10T00:55:41;5.75;4.00;1.00
65574;PMS5003;52216;54.942;73.394;2023-06-10T00:58:47;5.00;4.50;1.00
65574;PMS5003;52216;54.942;73.394;2023-06-10T01:01:50;6.00;5.25;1.25
65574;PMS5003;52216;54.942;73.394;2023-06-10T01:04:54;7.67;7.33;3.33
65574;PMS5003;52216;54.942;73.394;2023-06-10T01:08:00;7.75;7.25;3.00
65574;PMS5003;52216;54.942;73.394;2023-06-10T01:11:07;4.00;4.00;2.25
65574;PMS5003;52216;54.942;73.394;2023-06-10T01:14:11;3.00;1.00;0.00
65574;PMS5003;52216;54.942;73.394;2023-06-10T01:17:16;3.00;1.25;0.00
65574;PMS5003;52216;54.942;73.394;2023-06-10T01:20:21;3.00;3.00;0.00
65574;PMS5003;52216;54.942;73.394;2023-06-10T01:23:23;4.00;4.00;0.00
65574;PMS5003;52216;54.942;73.394;2023-06-10T01:26:30;8.25;8.00;4.00
65574;PMS5003;52216;54.942;73.394;2023-06-10T01:29:41;4.25;4.25;3.00
65574;PMS5003;52216;54.942;73.394;2023-06-10T01:32:50;3.50;3.50;2.00
65574;PMS5003;52216;54.942;73.394;2023-06-10T01:35:54;7.00;7.00;3.00
65574;PMS5003;52216;54.942;73.394;2023-06-10T01:38:58;6.75;6.00;2.00
65574;PMS5003;52216;54.942;73.394;2023-06-10T01:42:01;7.00;7.00;3.00
65574;PMS5003;52216;54.942;73.394;2023-06-10T01:45:05;4.50;4.25;3.00
65574;PMS5003;52216;54.942;73.394;2023-06-10T01:48:08;8.00;7.00;2.25
65574;PMS5003;52216;54.942;73.394;2023-06-10T01:51:11;5.00;5.00;2.25
65574;PMS5003;52216;54.942;73.394;2023-06-10T01:54:15;4.00;4.00;3.00
65574;PMS5003;52216;54.942;73.394;2023-06-10T01:57:19;6.00;5.00;2.00
65574;PMS5003;52216;54.942;73.394;2023-06-10T02:00:21;5.00;4.50;2.00
65574;PMS5003;52216;54.942;73.394;2023-06-10T02:03:23;4.00;4.00;2.00
65574;PMS5003;52216;54.942;73.394;2023-06-10T02:06:25;4.00;3.00;1.00
65574;PMS5003;52216;54.942;73.394;2023-06-10T02:09:32;4.75;4.00;2.00
65574;PMS5003;52216;54.942;73.394;2023-06-10T02:12:38;3.25;3.25;1.00
65574;PMS5003;52216;54.942;73.394;2023-06-10T02:15:41;3.25;3.25;1.00
65574;PMS5003;52216;54.942;73.394;2023-06-10T02:18:44;3.25;2.00;1.00
65574;PMS5003;52216;54.942;73.394;2023-06-10T02:21:49;3.00;3.00;1.00
65574;PMS5003;52216;54.942;73.394;2023-06-10T02:24:51;6.00;6.00;2.00
65574;PMS5003;52216;54.942;73.394;2023-06-10T02:28:34;3.71;3.71;1.43
65574;PMS5003;52216;54.942;73.394;2023-06-10T02:31:38;3.25;3.00;0.25
65574;PMS5003;52216;54.942;73.394;2023-06-10T02:34:42;3.00;3.00;0.00
65574;PMS5003;52216;54.942;73.394;2023-06-10T02:37:46;4.25;4.25;0.25
65574;PMS5003;52216;54.942;73.394;2023-06-10T02:40:48;7.00;6.00;1.00
65574;PMS5003;52216;54.942;73.394;2023-06-10T02:43:51;5.25;4.00;1.00
65574;PMS5003;52216;54.942;73.394;2023-06-10T02:46:53;5.75;5.50;2.50
65574;PMS5003;52216;54.942;73.394;2023-06-10T02:49:56;6.00;6.00;3.00
65574;PMS5003;52216;54.942;73.394;2023-06-10T02:52:59;4.25;4.25;2.25
65574;PMS5003;52216;54.942;73.394;2023-06-10T02:56:03;5.50;5.50;2.00
65574;PMS5003;52216;54.942;73.394;2023-06-10T02:59:05;5.00;4.00;3.00
65574;PMS5003;52216;54.942;73.394;2023-06-10T03:02:09;5.00;4.50;3.00
65574;PMS5003;52216;54.942;73.394;2023-06-10T03:05:18;3.67;2.67;1.00
65574;PMS5003;52216;54.942;73.394;2023-06-10T03:08:23;3.00;3.00;1.00
65574;PMS5003;52216;54.942;73.394;2023-06-10T03:11:28;2.75;2.75;0.00
65574;PMS5003;52216;54.942;73.394;2023-06-10T03:14:32;3.00;2.75;1.00
65574;PMS5003;52216;54.942;73.394;2023-06-10T03:17:35;2.75;2.50;0.00
65574;PMS5003;52216;54.942;73.394;2023-06-10T03:20:40;2.00;0.00;0.00
65574;PMS5003;52216;54.942;73.394;2023-06-10T03:23:45;3.00;1.00;0.00
65574;PMS5003;52216;54.942;73.394;2023-06-10T03:26:48;3.00;2.00;0.00
65574;PMS5003;52216;54.942;73.394;2023-06-10T03:29:53;2.00;2.00;0.00
65574;PMS5003;52216;54.942;73.394;2023-06-10T03:32:57;2.00;2.00;0.00
65574;PMS5003;52216;54.942;73.394;2023-06-10T03:36:02;3.00;3.00;0.00
65574;PMS5003;52216;54.942;73.394;2023-06-10T03:39:06;1.00;1.00;0.00
65574;PMS5003;52216;54.942;73.394;2023-06-10T03:42:10;6.75;6.00;0.00
65574;PMS5003;52216;54.942;73.394;2023-06-10T03:45:13;7.00;7.00;1.00
65574;PMS5003;52216;54.942;73.394;2023-06-10T03:48:16;10.00;9.00;4.00
65574;PMS5003;52216;54.942;73.394;2023-06-10T03:51:23;9.00;7.00;3.25
65574;PMS5003;52216;54.942;73.394;2023-06-10T03:54:26;11.00;11.00;6.00
65574;PMS5003;52216;54.942;73.394;2023-06-10T03:57:30;8.00;8.00;5.00
65574;PMS5003;52216;54.942;73.394;2023-06-10T04:00:33;11.00;8.50;4.00
65574;PMS5003;52216;54.942;73.394;2023-06-10T04:03:43;12.50;11.50;4.50
65574;PMS5003;52216;54.942;73.394;2023-06-10T04:06:45;9.50;9.00;4.00
65574;PMS5003;52216;54.942;73.394;2023-06-10T04:09:48;18.00;16.50;7.00
65574;PMS5003;52216;54.942;73.394;2023-06-10T04:12:52;14.50;12.75;4.25
65574;PMS5003;52216;54.942;73.394;2023-06-10T04:15:57;18.00;17.00;8.25
65574;PMS5003;52216;54.942;73.394;2023-06-10T04:19:00;16.00;16.00;6.25
65574;PMS5003;52216;54.942;73.394;2023-06-10T04:22:03;15.00;12.00;4.00
65574;PMS5003;52216;54.942;73.394;2023-06-10T04:25:08;8.00;5.75;3.00
65574;PMS5003;52216;54.942;73.394;2023-06-10T04:28:11;8.00;7.75;4.00
65574;PMS5003;52216;54.942;73.394;2023-06-10T04:31:14;7.00;7.00;3.00
65574;PMS5003;52216;54.942;73.394;2023-06-10T04:34:17;7.50;7.50;4.00
65574;PMS5003;52216;54.942;73.394;2023-06-10T04:37:19;7.00;7.00;3.00
65574;PMS5003;52216;54.942;73.394;2023-06-10T04:40:21;7.00;7.00;3.00
65574;PMS5003;52216;54.942;73.394;2023-06-10T04:43:24;3.25;3.25;2.25
65574;PMS5003;52216;54.942;73.394;2023-06-10T04:46:28;9.00;8.00;3.50
65574;PMS5003;52216;54.942;73.394;2023-06-10T04:49:32;7.00;7.00;3.50
65574;PMS5003;52216;54.942;73.394;2023-06-10T04:52:34;6.00;5.00;3.00
65574;PMS5003;52216;54.942;73.394;2023-06-10T04:55:38;5.25;5.00;3.00
65574;PMS5003;52216;54.942;73.394;2023-06-10T04:58:40;5.33;5.33;3.00
65574;PMS5003;52216;54.942;73.394;2023-06-10T05:01:42;4.00;4.00;3.00
65574;PMS5003;52216;54.942;73.394;2023-06-10T05:04:45;3.00;3.00;2.00
65574;PMS5003;52216;54.942;73.394;2023-06-10T05:07:48;4.00;4.00;1.00
65574;PMS5003;52216;54.942;73.394;2023-06-10T05:10:52;4.25;4.00;1.00
65574;PMS5003;52216;54.942;73.394;2023-06-10T05:13:56;3.00;3.00;1.00
65574;PMS5003;52216;54.942;73.394;2023-06-10T05:16:58;3.75;3.75;1.00
65574;PMS5003;52216;54.942;73.394;2023-06-10T05:19:59;4.00;4.00;0.50
65574;PMS5003;52216;54.942;73.394;2023-06-10T05:23:03;4.00;4.00;0.00
65574;PMS5003;52216;54.942;73.394;2023-06-10T05:26:05;12.00;9.00;4.00
65574;PMS5003;52216;54.942;73.394;2023-06-10T05:29:07;7.00;7.00;2.75
65574;PMS5003;52216;54.942;73.394;2023-06-10T05:32:13;5.33;4.00;2.00
65574;PMS5003;52216;54.942;73.394;2023-06-10T05:35:15;4.00;4.00;2.00
65574;PMS5003;52216;54.942;73.394;2023-06-10T05:38:17;5.00;4.00;2.00
65574;PMS5003;52216;54.942;73.394;2023-06-10T05:41:19;6.00;5.00;1.00
65574;PMS5003;52216;54.942;73.394;2023-06-10T05:45:01;3.00;3.00;1.00
65574;PMS5003;52216;54.942;73.394;2023-06-10T05:48:07;4.00;3.00;1.00
65574;PMS5003;52216;54.942;73.394;2023-06-10T05:51:11;5.50;5.50;2.00
65574;PMS5003;52216;54.942;73.394;2023-06-10T05:54:13;5.00;5.00;2.00
65574;PMS5003;52216;54.942;73.394;2023-06-10T05:57:15;5.50;4.00;3.00
65574;PMS5003;52216;54.942;73.394;2023-06-10T06:00:17;4.00;4.00;2.00
65574;PMS5003;52216;54.942;73.394;2023-06-10T06:03:20;4.00;4.00;2.00
65574;PMS5003;52216;54.942;73.394;2023-06-10T06:06:21;7.00;6.00;3.00
65574;PMS5003;52216;54.942;73.394;2023-06-10T06:09:25;3.00;3.00;2.00
65574;PMS5003;52216;54.942;73.394;2023-06-10T06:12:29;4.00;3.00;1.00
65574;PMS5003;52216;54.942;73.394;2023-06-10T06:15:31;3.00;3.00;1.00
65574;PMS5003;52216;54.942;73.394;2023-06-10T06:18:33;4.00;4.00;1.00
65574;PMS5003;52216;54.942;73.394;2023-06-10T06:21:37;3.00;3.00;2.00
65574;PMS5003;52216;54.942;73.394;2023-06-10T06:24:40;1.00;1.00;0.00
65574;PMS5003;52216;54.942;73.394;2023-06-10T06:27:55;8.00;7.75;4.00
65574;PMS5003;52216;54.942;73.394;2023-06-10T06:30:56;5.25;5.25;4.00
65574;PMS5003;52216;54.942;73.394;2023-06-10T06:34:00;4.00;4.00;2.00
65574;PMS5003;52216;54.942;73.394;2023-06-10T06:37:03;3.00;3.00;2.00
65574;PMS5003;52216;54.942;73.394;2023-06-10T06:40:08;3.00;3.00;2.00
65574;PMS5003;52216;54.942;73.394;2023-06-10T06:43:10;5.25;5.25;2.00
65574;PMS5003;52216;54.942;73.394;2023-06-10T06:46:39;6.67;6.00;3.00
65574;PMS5003;52216;54.942;73.394;2023-06-10T06:49:41;8.00;8.00;4.00
65574;PMS5003;52216;54.942;73.394;2023-06-10T06:52:44;5.67;5.67;2.00
65574;PMS5003;52216;54.942;73.394;2023-06-10T06:55:46;5.25;5.25;3.00
65574;PMS5003;52216;54.942;73.394;2023-06-10T06:58:49;6.00;6.00;4.00
65574;PMS5003;52216;54.942;73.394;2023-06-10T07:01:52;3.50;3.50;3.00
65574;PMS5003;52216;54.942;73.394;2023-06-10T07:04:56;7.25;7.25;4.00
65574;PMS5003;52216;54.942;73.394;2023-06-10T07:07:58;5.00;5.00;3.00
65574;PMS5003;52216;54.942;73.394;2023-06-10T07:11:00;2.00;2.00;2.00
65574;PMS5003;52216;54.942;73.394;2023-06-10T07:14:04;1.25;1.25;0.00
65574;PMS5003;52216;54.942;73.394;2023-06-10T07:17:07;1.00;1.00;0.00
65574;PMS5003;52216;54.942;73.394;2023-06-10T07:20:17;1.33;1.00;0.00
65574;PMS5003;52216;54.942;73.394;2023-06-10T07:23:20;3.00;2.00;0.00
65574;PMS5003;52216;54.942;73.394;2023-06-10T07:26:24;1.00;1.00;0.00
65574;PMS5003;52216;54.942;73.394;2023-06-10T07:29:28;2.00;2.00;0.00
65574;PMS5003;52216;54.942;73.394;2023-06-10T07:32:31;1.00;1.00;0.00
65574;PMS5003;52216;54.942;73.394;2023-06-10T07:35:34;1.00;1.00;0.00
65574;PMS5003;52216;54.942;73.394;2023-06-10T07:38:37;2.00;2.00;0.00
65574;PMS5003;52216;54.942;73.394;2023-06-10T07:41:39;1.00;1.00;0.00
65574;PMS5003;52216;54.942;73.394;2023-06-10T07:44:42;0.00;0.00;0.00
65574;PMS5003;52216;54.942;73.394;2023-06-10T07:47:46;2.00;0.00;0.00
65574;PMS5003;52216;54.942;73.394;2023-06-10T07:50:49;1.00;1.00;0.00
65574;PMS5003;52216;54.942;73.394;2023-06-10T07:53:52;1.00;1.00;0.00
65574;PMS5003;52216;54.942;73.394;2023-06-10T07:56:55;1.00;1.00;0.00
65574;PMS5003;52216;54.942;73.394;2023-06-10T07:59:58;1.00;1.00;0.00
65574;PMS5003;52216;54.942;73.394;2023-06-10T08:03:03;3.00;3.00;0.00
65574;PMS5003;52216;54.942;73.394;2023-06-10T08:06:06;1.00;1.00;0.00
65574;PMS5003;52216;54.942;73.394;2023-06-10T08:09:09;2.00;2.00;0.00
65574;PMS5003;52216;54.942;73.394;2023-06-10T08:12:12;2.00;2.00;0.00
65574;PMS5003;52216;54.942;73.394;2023-06-10T08:15:18;4.25;3.25;1.00
65574;PMS5003;52216;54.942;73.394;2023-06-10T08:18:21;3.00;3.00;1.00
65574;PMS5003;52216;54.942;73.394;2023-06-10T08:21:23;0.33;0.33;0.00
65574;PMS5003;52216;54.942;73.394;2023-06-10T08:24:24;0.00;0.00;0.00
65574;PMS5003;52216;54.942;73.394;2023-06-10T08:27:28;2.75;1.75;0.00
65574;PMS5003;52216;54.942;73.394;2023-06-10T08:30:32;2.00;2.00;0.00
65574;PMS5003;52216;54.942;73.394;2023-06-10T08:33:36;1.00;1.00;0.00
65574;PMS5003;52216;54.942;73.394;2023-06-10T08:36:39;1.75;1.75;0.00
65574;PMS5003;52216;54.942;73.394;2023-06-10T08:39:43;2.00;2.00;0.00
65574;PMS5003;52216;54.942;73.394;2023-06-10T08:42:52;4.00;4.00;0.00
65574;PMS5003;52216;54.942;73.394;2023-06-10T08:46:28;3.00;3.00;0.00
65574;PMS5003;52216;54.942;73.394;2023-06-10T08:49:33;4.00;3.00;0.00
65574;PMS5003;52216;54.942;73.394;2023-06-10T08:52:37;1.50;1.00;0.00
65574;PMS5003;52216;54.942;73.394;2023-06-10T08:55:44;1.00;1.00;0.00
65574;PMS5003;52216;54.942;73.394;2023-06-10T08:58:50;2.00;1.25;0.00
65574;PMS5003;52216;54.942;73.394;2023-06-10T09:01:54;1.00;1.00;0.00
65574;PMS5003;52216;54.942;73.394;2023-06-10T09:04:57;1.00;1.00;0.00
65574;PMS5003;52216;54.942;73.394;2023-06-10T09:07:59;1.00;1.00;0.00
65574;PMS5003;52216;54.942;73.394;2023-06-10T09:11:02;1.67;1.67;0.00
65574;PMS5003;52216;54.942;73.394;2023-06-10T09:14:05;7.25;7.00;0.25
65574;PMS5003;52216;54.942;73.394;2023-06-10T09:17:07;6.25;6.25;3.00
65574;PMS5003;52216;54.942;73.394;2023-06-10T09:20:10;4.25;4.25;2.00
65574;PMS5003;52216;54.942;73.394;2023-06-10T09:23:12;6.00;5.00;3.33
65574;PMS5003;52216;54.942;73.394;2023-06-10T09:26:15;3.00;3.00;2.00
65574;PMS5003;52216;54.942;73.394;2023-06-10T09:29:17;5.00;5.00;3.50
65574;PMS5003;52216;54.942;73.394;2023-06-10T09:32:19;3.00;3.00;1.00
65574;PMS5003;52216;54.942;73.394;2023-06-10T09:35:23;1.00;1.00;0.00
65574;PMS5003;52216;54.942;73.394;2023-06-10T09:38:29;3.00;3.00;0.00
65574;PMS5003;52216;54.942;73.394;2023-06-10T09:41:35;2.00;2.00;0.00
65574;PMS5003;52216;54.942;73.394;2023-06-10T09:44:40;4.75;4.75;0.00
65574;PMS5003;52216;54.942;73.394;2023-06-10T09:47:45;6.00;5.00;1.00
65574;PMS5003;52216;54.942;73.394;2023-06-10T09:50:48;4.00;3.00;1.00
65574;PMS5003;52216;54.942;73.394;2023-06-10T09:53:51;3.25;2.00;1.00
65574;PMS5003;52216;54.942;73.394;2023-06-10T09:56:54;3.75;3.00;1.00
65574;PMS5003;52216;54.942;73.394;2023-06-10T09:59:59;2.50;2.50;0.00
65574;PMS5003;52216;54.942;73.394;2023-06-10T10:03:02;3.00;3.00;1.00
65574;PMS5003;52216;54.942;73.394;2023-06-10T10:06:05;2.50;2.50;0.00
65574;PMS5003;52216;54.942;73.394;2023-06-10T10:09:08;2.25;2.25;1.00
65574;PMS5003;52216;54.942;73.394;2023-06-10T10:12:13;3.00;3.00;2.00
65574;PMS5003;52216;54.942;73.394;2023-06-10T10:15:17;11.00;9.67;5.67
65574;PMS5003;52216;54.942;73.394;2023-06-10T10:18:23;12.75;11.75;7.00
65574;PMS5003;52216;54.942;73.394;2023-06-10T10:21:31;14.00;14.00;7.50
65574;PMS5003;52216;54.942;73.394;2023-06-10T10:24:42;16.00;16.00;8.00
65574;PMS5003;52216;54.942;73.394;2023-06-10T10:30:52;7.00;6.00;4.00
65574;PMS5003;52216;54.942;73.394;2023-06-10T10:33:59;6.00;6.00;3.00
65574;PMS5003;52216;54.942;73.394;2023-06-10T10:37:03;5.00;5.00;2.00
65574;PMS5003;52216;54.942;73.394;2023-06-10T10:40:06;5.00;5.00;2.00
65574;PMS5003;52216;54.942;73.394;2023-06-10T10:43:09;4.25;4.00;2.00
65574;PMS5003;52216;54.942;73.394;2023-06-10T10:46:13;5.00;5.00;2.00
65574;PMS5003;52216;54.942;73.394;2023-06-10T10:49:19;5.00;5.00;3.00
65574;PMS5003;52216;54.942;73.394;2023-06-10T10:52:23;5.00;5.00;3.00
65574;PMS5003;52216;54.942;73.394;2023-06-10T10:55:26;4.00;4.00;2.00
65574;PMS5003;52216;54.942;73.394;2023-06-10T10:58:29;4.00;4.00;2.00
65574;PMS5003;52216;54.942;73.394;2023-06-10T11:01:41;5.33;4.33;2.00
65574;PMS5003;52216;54.942;73.394;2023-06-10T11:04:45;5.00;5.00;1.00
65574;PMS5003;52216;54.942;73.394;2023-06-10T11:07:53;5.25;5.25;2.00
65574;PMS5003;52216;54.942;73.394;2023-06-10T11:10:58;5.00;5.00;2.00
65574;PMS5003;52216;54.942;73.394;2023-06-10T11:17:04;7.00;6.00;2.00
65574;PMS5003;52216;54.942;73.394;2023-06-10T11:23:40;4.75;3.00;2.00
65574;PMS5003;52216;54.942;73.394;2023-06-10T11:26:44;2.00;2.00;1.00
65574;PMS5003;52216;54.942;73.394;2023-06-10T11:33:15;3.00;3.00;2.00
65574;PMS5003;52216;54.942;73.394;2023-06-10T11:36:18;4.00;4.00;1.00
65574;PMS5003;52216;54.942;73.394;2023-06-10T11:39:21;4.00;4.00;1.00
65574;PMS5003;52216;54.942;73.394;2023-06-10T11:42:27;4.00;4.00;1.00
65574;PMS5003;52216;54.942;73.394;2023-06-10T11:45:30;5.50;4.00;2.00
65574;PMS5003;52216;54.942;73.394;2023-06-10T11:48:32;5.00;4.25;1.00
65574;PMS5003;52216;54.942;73.394;2023-06-10T11:51:36;4.00;4.00;1.00
65574;PMS5003;52216;54.942;73.394;2023-06-10T11:54:40;6.00;6.00;3.75
65574;PMS5003;52216;54.942;73.394;2023-06-10T11:58:13;3.00;3.00;1.50
65574;PMS5003;52216;54.942;73.394;2023-06-10T12:01:23;5.50;4.00;0.00
65574;PMS5003;52216;54.942;73.394;2023-06-10T12:04:26;4.00;3.33;1.00
65574;PMS5003;52216;54.942;73.394;2023-06-10T12:08:09;3.88;3.25;1.00
65574;PMS5003;52216;54.942;73.394;2023-06-10T12:11:12;4.75;4.00;2.50
65574;PMS5003;52216;54.942;73.394;2023-06-10T12:14:15;3.00;3.00;0.00
65574;PMS5003;52216;54.942;73.394;2023-06-10T12:17:19;4.00;3.00;1.00
65574;PMS5003;52216;54.942;73.394;2023-06-10T12:20:27;1.00;1.00;1.00
65574;PMS5003;52216;54.942;73.394;2023-06-10T12:23:31;3.50;3.50;1.00
65574;PMS5003;52216;54.942;73.394;2023-06-10T12:29:50;4.75;4.75;2.00
65574;PMS5003;52216;54.942;73.394;2023-06-10T12:32:53;4.00;4.00;1.00
65574;PMS5003;52216;54.942;73.394;2023-06-10T12:35:57;2.00;2.00;1.00
65574;PMS5003;52216;54.942;73.394;2023-06-10T12:39:03;2.00;2.00;0.00
65574;PMS5003;52216;54.942;73.394;2023-06-10T12:42:05;2.00;1.00;0.00
65574;PMS5003;52216;54.942;73.394;2023-06-10T12:45:12;4.00;4.00;0.00
65574;PMS5003;52216;54.942;73.394;2023-06-10T12:48:19;3.00;3.00;0.00
65574;PMS5003;52216;54.942;73.394;2023-06-10T12:51:23;1.00;1.00;0.00
65574;PMS5003;52216;54.942;73.394;2023-06-10T12:54:25;0.00;0.00;0.00
65574;PMS5003;52216;54.942;73.394;2023-06-10T12:57:28;0.00;0.00;0.00
65574;PMS5003;52216;54.942;73.394;2023-06-10T13:00:32;2.00;2.00;0.00
65574;PMS5003;52216;54.942;73.394;2023-06-10T13:03:38;2.00;2.00;0.00
65574;PMS5003;52216;54.942;73.394;2023-06-10T13:06:41;1.00;1.00;0.00
65574;PMS5003;52216;54.942;73.394;2023-06-10T13:09:45;1.00;1.00;0.00
65574;PMS5003;52216;54.942;73.394;2023-06-10T13:12:51;1.00;1.00;0.00
65574;PMS5003;52216;54.942;73.394;2023-06-10T13:15:55;1.00;1.00;0.00
65574;PMS5003;52216;54.942;73.394;2023-06-10T13:18:58;0.75;0.75;0.00
65574;PMS5003;52216;54.942;73.394;2023-06-10T13:22:01;2.00;1.00;0.00
65574;PMS5003;52216;54.942;73.394;2023-06-10T13:25:05;1.00;1.00;0.00
65574;PMS5003;52216;54.942;73.394;2023-06-10T13:28:09;2.25;2.25;0.00
65574;PMS5003;52216;54.942;73.394;2023-06-10T13:31:14;2.00;2.00;0.00
65574;PMS5003;52216;54.942;73.394;2023-06-10T13:34:18;1.00;1.00;0.00
65574;PMS5003;52216;54.942;73.394;2023-06-10T13:37:21;1.00;1.00;0.00
65574;PMS5003;52216;54.942;73.394;2023-06-10T13:40:24;1.00;1.00;0.00
65574;PMS5003;52216;54.942;73.394;2023-06-10T13:43:28;1.50;1.50;0.00
65574;PMS5003;52216;54.942;73.394;2023-06-10T13:46:31;1.00;1.00;0.00
65574;PMS5003;52216;54.942;73.394;2023-06-10T13:49:34;2.00;2.00;0.00
65574;PMS5003;52216;54.942;73.394;2023-06-10T13:52:38;3.00;3.00;0.00
65574;PMS5003;52216;54.942;73.394;2023-06-10T13:55:41;1.00;1.00;0.00
65574;PMS5003;52216;54.942;73.394;2023-06-10T13:58:44;1.00;1.00;0.00
65574;PMS5003;52216;54.942;73.394;2023-06-10T14:01:47;3.00;2.00;0.00
65574;PMS5003;52216;54.942;73.394;2023-06-10T14:04:50;2.00;2.00;0.00
65574;PMS5003;52216;54.942;73.394;2023-06-10T14:07:53;1.00;1.00;0.00
65574;PMS5003;52216;54.942;73.394;2023-06-10T14:10:57;3.25;2.00;0.00
65574;PMS5003;52216;54.942;73.394;2023-06-10T14:13:59;2.75;2.00;0.00
65574;PMS5003;52216;54.942;73.394;2023-06-10T14:17:04;3.50;3.00;0.00
65574;PMS5003;52216;54.942;73.394;2023-06-10T14:20:08;3.00;3.00;1.00
65574;PMS5003;52216;54.942;73.394;2023-06-10T14:23:11;2.50;2.50;1.00
65574;PMS5003;52216;54.942;73.394;2023-06-10T14:26:14;4.00;4.00;1.67
65574;PMS5003;52216;54.942;73.394;2023-06-10T14:29:16;4.00;4.00;1.00
65574;PMS5003;52216;54.942;73.394;2023-06-10T14:32:20;1.00;1.00;0.00
65574;PMS5003;52216;54.942;73.394;2023-06-10T14:35:24;3.00;3.00;1.00
65574;PMS5003;52216;54.942;73.394;2023-06-10T14:38:28;3.00;3.00;0.00
65574;PMS5003;52216;54.942;73.394;2023-06-10T14:41:31;2.00;2.00;0.00
65574;PMS5003;52216;54.942;73.394;2023-06-10T14:44:33;2.00;2.00;0.00
65574;PMS5003;52216;54.942;73.394;2023-06-10T14:47:37;7.00;6.00;2.00
65574;PMS5003;52216;54.942;73.394;2023-06-10T14:50:40;7.00;7.00;3.00
65574;PMS5003;52216;54.942;73.394;2023-06-10T14:53:47;4.50;4.00;2.00
65574;PMS5003;52216;54.942;73.394;2023-06-10T14:56:50;6.00;5.00;2.00
65574;PMS5003;52216;54.942;73.394;2023-06-10T14:59:53;7.00;6.00;2.00
65574;PMS5003;52216;54.942;73.394;2023-06-10T15:02:57;7.00;7.00;2.00
65574;PMS5003;52216;54.942;73.394;2023-06-10T15:05:59;7.25;7.25;3.00
65574;PMS5003;52216;54.942;73.394;2023-06-10T15:09:40;6.00;6.00;2.00
65574;PMS5003;52216;54.942;73.394;2023-06-10T15:12:43;6.00;6.00;2.00
65574;PMS5003;52216;54.942;73.394;2023-06-10T15:15:47;4.50;4.50;2.50
65574;PMS5003;52216;54.942;73.394;2023-06-10T15:18:50;3.00;3.00;1.00
65574;PMS5003;52216;54.942;73.394;2023-06-10T15:21:53;3.50;3.50;1.00
65574;PMS5003;52216;54.942;73.394;2023-06-10T15:24:55;5.00;4.00;1.00
65574;PMS5003;52216;54.942;73.394;2023-06-10T15:27:59;4.00;2.00;0.00
65574;PMS5003;52216;54.942;73.394;2023-06-10T15:31:01;3.00;3.00;0.00
65574;PMS5003;52216;54.942;73.394;2023-06-10T15:34:03;2.00;2.00;0.00
65574;PMS5003;52216;54.942;73.394;2023-06-10T15:37:07;5.00;5.00;1.25
65574;PMS5003;52216;54.942;73.394;2023-06-10T15:40:11;10.50;9.00;3.00
65574;PMS5003;52216;54.942;73.394;2023-06-10T15:43:13;11.50;11.50;5.00
65574;PMS5003;52216;54.942;73.394;2023-06-10T15:46:18;14.00;14.00;7.00
65574;PMS5003;52216;54.942;73.394;2023-06-10T15:49:20;16.75;16.00;8.00
65574;PMS5003;52216;54.942;73.394;2023-06-10T15:52:23;13.75;11.75;5.00
65574;PMS5003;52216;54.942;73.394;2023-06-10T15:55:26;16.33;14.33;7.00
65574;PMS5003;52216;54.942;73.394;2023-06-10T15:58:30;18.00;17.00;8.00
65574;PMS5003;52216;54.942;73.394;2023-06-10T16:01:33;18.00;16.00;7.00
65574;PMS5003;52216;54.942;73.394;2023-06-10T16:04:35;15.00;13.00;4.33
65574;PMS5003;52216;54.942;73.394;2023-06-10T16:07:40;11.00;10.00;4.00
65574;PMS5003;52216;54.942;73.394;2023-06-10T16:10:43;15.00;15.00;7.00
65574;PMS5003;52216;54.942;73.394;2023-06-10T16:13:45;14.00;14.00;6.00
65574;PMS5003;52216;54.942;73.394;2023-06-10T16:16:48;12.25;11.75;5.75
65574;PMS5003;52216;54.942;73.394;2023-06-10T16:19:50;18.50;18.25;10.50
65574;PMS5003;52216;54.942;73.394;2023-06-10T16:22:54;21.00;20.00;13.00
65574;PMS5003;52216;54.942;73.394;2023-06-10T16:25:56;14.25;14.25;7.00
65574;PMS5003;52216;54.942;73.394;2023-06-10T16:28:59;13.00;13.00;6.25
65574;PMS5003;52216;54.942;73.394;2023-06-10T16:32:01;13.00;13.00;6.00
65574;PMS5003;52216;54.942;73.394;2023-06-10T16:35:04;11.25;9.00;4.00
65574;PMS5003;52216;54.942;73.394;2023-06-10T16:38:06;8.50;7.50;4.75
65574;PMS5003;52216;54.942;73.394;2023-06-10T16:41:09;7.00;7.00;3.00
65574;PMS5003;52216;54.942;73.394;2023-06-10T16:44:11;8.75;8.00;4.00
65574;PMS5003;52216;54.942;73.394;2023-06-10T16:47:14;15.33;13.00;6.33
65574;PMS5003;52216;54.942;73.394;2023-06-10T16:50:16;17.00;13.50;4.00
65574;PMS5003;52216;54.942;73.394;2023-06-10T16:53:19;16.00;12.00;6.00
65574;PMS5003;52216;54.942;73.394;2023-06-10T16:56:22;18.50;16.50;8.00
65574;PMS5003;52216;54.942;73.394;2023-06-10T16:59:23;21.75;20.00;10.00
65574;PMS5003;52216;54.942;73.394;2023-06-10T17:02:25;24.75;23.25;13.50
65574;PMS5003;52216;54.942;73.394;2023-06-10T17:05:28;25.50;25.00;15.00
65574;PMS5003;52216;54.942;73.394;2023-06-10T17:08:30;28.00;28.00;15.50
65574;PMS5003;52216;54.942;73.394;2023-06-10T17:11:32;31.75;28.00;18.00
65574;PMS5003;52216;54.942;73.394;2023-06-10T17:14:35;45.60;37.80;22.80
65574;PMS5003;52216;54.942;73.394;2023-06-10T17:17:39;45.80;37.80;23.00
65574;PMS5003;52216;54.942;73.394;2023-06-10T17:20:40;38.50;33.00;22.00
65574;PMS5003;52216;54.942;73.394;2023-06-10T17:23:43;36.00;31.00;21.00
65574;PMS5003;52216;54.942;73.394;2023-06-10T17:26:45;29.00;27.00;18.25
65574;PMS5003;52216;54.942;73.394;2023-06-10T17:29:48;23.75;23.00;16.25
65574;PMS5003;52216;54.942;73.394;2023-06-10T17:32:51;30.00;27.60;18.60
65574;PMS5003;52216;54.942;73.394;2023-06-10T17:35:53;39.00;33.00;21.50
65574;PMS5003;52216;54.942;73.394;2023-06-10T17:39:16;39.50;33.00;21.50
65574;PMS5003;52216;54.942;73.394;2023-06-10T17:42:18;39.00;33.00;20.50
65574;PMS5003;52216;54.942;73.394;2023-06-10T17:45:26;30.00;28.00;19.00
65574;PMS5003;52216;54.942;73.394;2023-06-10T17:48:28;34.00;28.00;19.00
65574;PMS5003;52216;54.942;73.394;2023-06-10T17:51:30;29.50;27.00;18.00